createdAt,value
2019-03-30T00:01:25.989Z,25.15
2019-03-30T00:03:54.466Z,22.65
2019-03-30T00:06:22.963Z,22.07
2019-03-30T00:08:51.434Z,22.42
2019-03-30T00:11:19.897Z,22.27
2019-03-30T00:13:48.659Z,21.45
2019-03-30T00:16:17.075Z,18.30
2019-03-30T00:18:45.955Z,21.40
2019-03-30T00:21:14.449Z,21.25
2019-03-30T00:23:42.869Z,20.57
2019-03-30T00:26:11.399Z,20.50
2019-03-30T00:28:39.831Z,20.35
2019-03-30T00:31:08.291Z,19.10
2019-03-30T00:33:36.777Z,20.75
2019-03-30T00:36:05.386Z,19.35
2019-03-30T00:38:33.946Z,19.40
2019-03-30T00:41:02.481Z,19.62
2019-03-30T00:43:30.940Z,19.30
2019-03-30T00:45:59.400Z,19.35
2019-03-30T00:48:27.917Z,22.27
2019-03-30T00:50:56.417Z,22.75
2019-03-30T00:53:24.914Z,16.62
2019-03-30T00:55:53.422Z,21.77
2019-03-30T00:58:21.871Z,19.87
2019-03-30T01:00:50.437Z,22.22
2019-03-30T01:03:18.871Z,21.00
2019-03-30T01:05:47.322Z,22.32
2019-03-30T01:08:15.875Z,18.80
2019-03-30T01:10:44.336Z,20.62
2019-03-30T01:13:12.829Z,18.40
2019-03-30T01:15:41.287Z,19.48
2019-03-30T01:18:09.782Z,19.45
2019-03-30T01:20:38.208Z,23.40
2019-03-30T01:23:06.680Z,23.05
2019-03-30T01:25:35.186Z,20.85
2019-03-30T01:28:03.720Z,19.73
2019-03-30T01:30:32.140Z,22.60
2019-03-30T01:33:00.563Z,20.80
2019-03-30T01:35:29.233Z,24.00
2019-03-30T01:37:57.848Z,23.05
2019-03-30T01:40:26.272Z,20.60
2019-03-30T01:42:54.692Z,21.05
2019-03-30T01:45:23.334Z,18.98
2019-03-30T01:47:51.769Z,21.68
2019-03-30T01:50:20.584Z,23.07
2019-03-30T01:52:49.078Z,21.20
2019-03-30T01:55:17.562Z,24.12
2019-03-30T01:57:46.008Z,22.37
2019-03-30T02:00:15.775Z,21.75
2019-03-30T02:02:44.426Z,22.65
2019-03-30T02:05:12.942Z,20.70
2019-03-30T02:07:41.373Z,23.35
2019-03-30T02:10:11.269Z,22.85
2019-03-30T02:12:39.926Z,25.32
2019-03-30T02:15:10.147Z,21.68
2019-03-30T02:17:38.590Z,24.05
2019-03-30T02:20:07.990Z,22.73
2019-03-30T02:22:36.516Z,26.62
2019-03-30T02:25:07.138Z,21.05
2019-03-30T02:27:35.668Z,24.37
2019-03-30T02:30:06.554Z,23.52
2019-03-30T02:32:34.997Z,23.40
2019-03-30T02:35:04.589Z,22.62
2019-03-30T02:37:33.044Z,27.70
2019-03-30T02:40:01.467Z,24.02
2019-03-30T02:42:29.960Z,20.85
2019-03-30T02:44:58.434Z,31.57
2019-03-30T02:47:26.932Z,22.90
2019-03-30T02:49:55.412Z,19.27
2019-03-30T02:52:23.805Z,21.17
2019-03-30T02:54:52.228Z,21.77
2019-03-30T02:57:20.673Z,20.50
2019-03-30T02:59:49.124Z,24.60
2019-03-30T03:02:17.540Z,24.77
2019-03-30T03:04:46.033Z,20.90
2019-03-30T03:07:14.562Z,24.80
2019-03-30T03:09:42.982Z,23.15
2019-03-30T03:12:11.499Z,19.27
2019-03-30T03:14:39.921Z,21.37
2019-03-30T03:17:08.375Z,21.00
2019-03-30T03:19:36.789Z,20.40
2019-03-30T03:22:05.237Z,20.35
2019-03-30T03:24:33.781Z,20.77
2019-03-30T03:27:02.273Z,20.17
2019-03-30T03:29:30.736Z,19.42
2019-03-30T03:31:59.274Z,21.57
2019-03-30T03:34:27.784Z,20.37
2019-03-30T03:36:56.206Z,20.40
2019-03-30T03:39:24.662Z,20.20
2019-03-30T03:41:53.153Z,20.80
2019-03-30T03:44:21.685Z,22.10
2019-03-30T03:46:50.108Z,23.45
2019-03-30T03:49:18.531Z,20.30
2019-03-30T03:51:47.048Z,23.98
2019-03-30T03:54:16.005Z,17.17
2019-03-30T03:56:47.771Z,22.35
2019-03-30T03:59:17.282Z,17.75
2019-03-30T04:01:47.624Z,19.30
2019-03-30T04:04:18.213Z,18.35
2019-03-30T04:06:49.744Z,18.45
2019-03-30T04:09:19.894Z,17.35
2019-03-30T04:11:49.793Z,16.73
2019-03-30T04:14:20.734Z,21.20
2019-03-30T04:16:49.328Z,17.05
2019-03-30T04:19:17.770Z,19.00
2019-03-30T04:21:46.223Z,19.15
2019-03-30T04:24:14.645Z,18.45
2019-03-30T04:26:43.060Z,22.32
2019-03-30T04:29:11.603Z,17.35
2019-03-30T04:31:40.143Z,17.05
2019-03-30T04:34:08.579Z,21.12
2019-03-30T04:36:36.993Z,19.02
2019-03-30T04:39:06.205Z,17.85
2019-03-30T04:41:34.652Z,20.92
2019-03-30T04:44:03.141Z,19.10
2019-03-30T04:46:31.558Z,20.55
2019-03-30T04:48:59.983Z,20.85
2019-03-30T04:51:28.450Z,18.27
2019-03-30T04:53:56.874Z,19.17
2019-03-30T04:56:25.335Z,18.60
2019-03-30T04:58:53.792Z,17.45
2019-03-30T05:01:22.237Z,20.02
2019-03-30T05:03:50.720Z,19.55
2019-03-30T05:06:19.140Z,17.17
2019-03-30T05:08:47.574Z,15.58
2019-03-30T05:11:16.030Z,16.45
2019-03-30T05:13:44.485Z,16.45
2019-03-30T05:16:13.026Z,16.15
2019-03-30T05:18:41.480Z,15.68
2019-03-30T05:21:09.893Z,17.90
2019-03-30T05:23:38.308Z,17.75
2019-03-30T05:26:06.779Z,14.93
2019-03-30T05:28:35.186Z,18.70
2019-03-30T05:31:03.649Z,17.75
2019-03-30T05:33:32.073Z,18.20
2019-03-30T05:36:00.621Z,18.98
2019-03-30T05:38:29.072Z,18.10
2019-03-30T05:40:57.488Z,18.60
2019-03-30T05:43:25.938Z,21.52
2019-03-30T05:45:54.370Z,24.52
2019-03-30T05:48:22.829Z,21.15
2019-03-30T05:50:51.244Z,17.60
2019-03-30T05:53:19.698Z,16.17
2019-03-30T05:55:48.214Z,19.42
2019-03-30T05:58:16.644Z,18.92
2019-03-30T06:00:45.093Z,18.35
2019-03-30T06:03:13.535Z,16.32
2019-03-30T06:05:42.015Z,17.82
2019-03-30T06:08:10.439Z,14.63
2019-03-30T06:10:39.120Z,17.77
2019-03-30T06:13:07.718Z,16.55
2019-03-30T06:15:37.117Z,20.12
2019-03-30T06:18:05.582Z,16.52
2019-03-30T06:20:33.995Z,19.10
2019-03-30T06:23:02.447Z,20.32
2019-03-30T06:25:30.978Z,18.80
2019-03-30T06:27:59.445Z,18.27
2019-03-30T06:30:28.509Z,17.85
2019-03-30T06:32:56.953Z,20.37
2019-03-30T06:35:25.383Z,20.00
2019-03-30T06:37:53.884Z,18.32
2019-03-30T06:40:22.568Z,20.17
2019-03-30T06:42:51.007Z,19.90
2019-03-30T06:45:19.624Z,19.80
2019-03-30T06:47:48.046Z,16.97
2019-03-30T06:50:18.204Z,17.02
2019-03-30T06:52:57.506Z,16.42
2019-03-30T06:55:17.142Z,18.10
2019-03-30T06:57:45.671Z,17.20
2019-03-30T07:00:14.645Z,17.32
2019-03-30T07:02:43.425Z,18.45
2019-03-30T07:05:11.968Z,19.77
2019-03-30T07:07:42.122Z,21.68
2019-03-30T07:10:10.873Z,16.75
2019-03-30T07:12:41.042Z,16.23
2019-03-30T07:15:10.279Z,15.45
2019-03-30T07:17:41.789Z,17.90
2019-03-30T07:20:13.277Z,18.10
2019-03-30T07:22:41.704Z,18.90
2019-03-30T07:25:10.298Z,16.87
2019-03-30T07:27:38.716Z,14.83
2019-03-30T07:30:09.294Z,14.93
2019-03-30T07:32:37.720Z,16.80
2019-03-30T07:35:06.918Z,14.75
2019-03-30T07:37:35.375Z,13.70
2019-03-30T07:40:06.428Z,13.60
2019-03-30T07:42:34.858Z,15.50
2019-03-30T07:45:04.670Z,15.28
2019-03-30T07:47:33.088Z,16.48
2019-03-30T07:50:01.618Z,14.95
2019-03-30T07:52:30.114Z,14.18
2019-03-30T07:54:58.541Z,17.25
2019-03-30T07:57:26.970Z,16.27
2019-03-30T07:59:55.458Z,15.65
2019-03-30T08:02:23.979Z,15.23
2019-03-30T08:04:52.434Z,14.98
2019-03-30T08:07:20.951Z,14.23
2019-03-30T08:09:49.406Z,15.60
2019-03-30T08:12:17.937Z,15.05
2019-03-30T08:14:46.467Z,17.27
2019-03-30T08:17:14.991Z,16.85
2019-03-30T08:19:43.453Z,15.38
2019-03-30T08:22:11.938Z,16.95
2019-03-30T08:24:40.364Z,17.30
2019-03-30T08:27:08.813Z,17.15
2019-03-30T08:29:37.354Z,15.75
2019-03-30T08:32:05.967Z,16.48
2019-03-30T08:34:34.582Z,14.73
2019-03-30T08:37:03.008Z,15.00
2019-03-30T08:39:31.476Z,16.70
2019-03-30T08:41:59.905Z,15.75
2019-03-30T08:44:28.340Z,16.77
2019-03-30T08:46:56.847Z,15.28
2019-03-30T08:49:25.298Z,16.57
2019-03-30T08:51:53.749Z,16.30
2019-03-30T08:54:22.207Z,15.10
2019-03-30T08:56:50.732Z,16.30
2019-03-30T08:59:19.224Z,14.40
2019-03-30T09:01:47.679Z,15.03
2019-03-30T09:04:16.125Z,14.35
2019-03-30T09:06:44.844Z,17.02
2019-03-30T09:09:13.433Z,13.55
2019-03-30T09:11:43.580Z,12.65
2019-03-30T09:14:12.051Z,13.00
2019-03-30T09:16:41.473Z,13.40
2019-03-30T09:19:09.935Z,13.13
2019-03-30T09:21:38.367Z,12.75
2019-03-30T09:24:09.866Z,10.68
2019-03-30T09:26:37.069Z,11.55
2019-03-30T09:29:05.569Z,11.95
2019-03-30T09:31:34.333Z,10.90
2019-03-30T09:34:02.764Z,9.40
2019-03-30T09:36:31.237Z,10.13
2019-03-30T09:38:59.658Z,9.20
2019-03-30T09:41:28.247Z,10.13
2019-03-30T09:43:56.705Z,8.75
2019-03-30T09:46:25.160Z,10.43
2019-03-30T09:48:53.574Z,9.70
2019-03-30T09:51:22.076Z,9.48
2019-03-30T09:53:50.609Z,9.98
2019-03-30T09:56:19.036Z,7.50
2019-03-30T09:58:47.553Z,5.65
2019-03-30T10:01:16.064Z,7.47
2019-03-30T10:03:44.583Z,8.23
2019-03-30T10:06:13.130Z,7.87
2019-03-30T10:08:41.580Z,7.20
2019-03-30T10:11:10.069Z,7.35
2019-03-30T10:13:38.523Z,8.48
2019-03-30T10:16:06.938Z,7.05
2019-03-30T10:18:35.380Z,7.87
2019-03-30T10:21:03.919Z,7.72
2019-03-30T10:23:32.331Z,9.05
2019-03-30T10:26:01.121Z,6.95
2019-03-30T10:28:29.534Z,6.30
2019-03-30T10:30:58.033Z,6.40
2019-03-30T10:33:26.431Z,6.22
2019-03-30T10:35:54.875Z,6.03
2019-03-30T10:38:23.318Z,7.28
2019-03-30T10:40:51.774Z,6.65
2019-03-30T10:43:20.193Z,6.50
2019-03-30T10:45:48.641Z,6.10
2019-03-30T10:48:17.082Z,5.97
2019-03-30T10:50:45.558Z,7.53
2019-03-30T10:53:14.009Z,6.05
2019-03-30T10:55:42.427Z,6.50
2019-03-30T10:58:10.943Z,7.12
2019-03-30T11:00:40.650Z,5.00
2019-03-30T11:03:09.222Z,6.85
2019-03-30T11:05:37.748Z,5.35
2019-03-30T11:08:06.367Z,5.00
2019-03-30T11:10:34.933Z,6.10
2019-03-30T11:13:03.460Z,6.12
2019-03-30T11:15:34.104Z,5.83
2019-03-30T11:18:02.297Z,4.87
2019-03-30T11:20:30.963Z,6.05
2019-03-30T11:22:59.457Z,27.50
2019-03-30T11:25:28.003Z,5.72
2019-03-30T11:27:56.418Z,5.25
2019-03-30T11:30:24.981Z,8.05
2019-03-30T11:32:53.529Z,47.30
2019-03-30T11:35:22.036Z,43.60
2019-03-30T11:37:51.314Z,6.55
2019-03-30T11:40:19.840Z,9.55
2019-03-30T11:42:48.248Z,7.58
2019-03-30T11:45:16.876Z,9.25
2019-03-30T11:47:45.308Z,6.40
2019-03-30T11:50:14.129Z,6.65
2019-03-30T11:52:42.565Z,5.87
2019-03-30T11:55:21.838Z,6.22
2019-03-30T11:57:41.447Z,7.05
2019-03-30T12:00:10.495Z,12.30
2019-03-30T12:02:39.072Z,8.93
2019-03-30T12:05:08.735Z,6.00
2019-03-30T12:07:37.830Z,7.55
2019-03-30T12:10:09.166Z,10.50
2019-03-30T12:12:37.791Z,9.85
2019-03-30T12:15:07.491Z,6.55
2019-03-30T12:17:35.921Z,17.10
2019-03-30T12:20:06.663Z,7.35
2019-03-30T12:22:35.088Z,16.30
2019-03-30T12:25:03.697Z,13.38
2019-03-30T12:27:32.211Z,10.58
2019-03-30T12:30:00.764Z,8.58
2019-03-30T12:32:29.192Z,15.83
2019-03-30T12:34:57.764Z,15.83
2019-03-30T12:37:26.285Z,11.20
2019-03-30T12:39:58.060Z,7.45
2019-03-30T12:42:25.047Z,7.35
2019-03-30T12:44:53.487Z,7.92
2019-03-30T12:47:22.007Z,8.18
2019-03-30T12:49:50.437Z,8.40
2019-03-30T12:52:18.875Z,8.05
2019-03-30T12:54:47.297Z,7.83
2019-03-30T12:57:15.792Z,9.05
2019-03-30T12:59:44.220Z,8.50
2019-03-30T13:02:12.703Z,6.78
2019-03-30T13:04:41.154Z,6.90
2019-03-30T13:07:09.587Z,7.42
2019-03-30T13:09:38.031Z,7.97
2019-03-30T13:12:06.480Z,7.47
2019-03-30T13:14:34.900Z,8.88
2019-03-30T13:17:03.359Z,7.00
2019-03-30T13:19:31.793Z,8.13
2019-03-30T13:22:00.215Z,7.60
2019-03-30T13:24:28.667Z,7.62
2019-03-30T13:26:57.128Z,8.28
2019-03-30T13:29:25.616Z,8.90
2019-03-30T13:31:54.026Z,7.75
2019-03-30T13:34:22.557Z,10.90
2019-03-30T13:36:50.977Z,7.87
2019-03-30T13:39:19.403Z,7.90
2019-03-30T13:41:47.937Z,7.15
2019-03-30T13:44:16.422Z,7.20
2019-03-30T13:46:44.842Z,7.50
2019-03-30T13:49:13.289Z,7.67
2019-03-30T13:51:41.709Z,9.38
2019-03-30T13:54:10.383Z,7.95
2019-03-30T13:56:38.981Z,7.33
2019-03-30T13:59:07.440Z,7.17
2019-03-30T14:01:35.941Z,7.45
2019-03-30T14:04:04.510Z,11.60
2019-03-30T14:06:33.022Z,6.35
2019-03-30T14:09:01.507Z,9.00
2019-03-30T14:11:29.996Z,8.63
2019-03-30T14:13:58.411Z,9.83
2019-03-30T14:16:26.841Z,10.32
2019-03-30T14:18:55.298Z,8.35
2019-03-30T14:21:23.726Z,7.37
2019-03-30T14:23:52.188Z,7.40
2019-03-30T14:26:30.785Z,8.13
2019-03-30T14:28:50.776Z,9.43
2019-03-30T14:31:19.219Z,7.67
2019-03-30T14:33:47.686Z,6.95
2019-03-30T14:36:16.150Z,8.33
2019-03-30T14:38:44.593Z,7.75
2019-03-30T14:41:13.143Z,8.30
2019-03-30T14:43:41.595Z,8.25
2019-03-30T14:46:10.040Z,7.85
2019-03-30T14:48:38.457Z,7.30
2019-03-30T14:51:06.950Z,9.55
2019-03-30T14:53:35.539Z,8.80
2019-03-30T14:56:04.125Z,7.60
2019-03-30T14:58:32.637Z,7.50
2019-03-30T15:01:03.195Z,8.60
2019-03-30T15:03:31.310Z,8.28
2019-03-30T15:05:59.753Z,8.10
2019-03-30T15:08:28.197Z,9.73
2019-03-30T15:10:56.818Z,7.25
2019-03-30T15:13:25.241Z,7.95
2019-03-30T15:15:53.767Z,7.53
2019-03-30T15:18:22.382Z,11.18
2019-03-30T15:20:50.832Z,7.40
2019-03-30T15:23:19.363Z,8.93
2019-03-30T15:25:48.188Z,8.03
2019-03-30T15:28:16.610Z,10.35
2019-03-30T15:30:45.040Z,8.00
2019-03-30T15:33:13.490Z,7.75
2019-03-30T15:35:41.908Z,7.45
2019-03-30T15:38:10.361Z,8.55
2019-03-30T15:40:38.790Z,9.28
2019-03-30T15:43:07.288Z,8.35
2019-03-30T15:45:35.749Z,9.28
2019-03-30T15:48:04.292Z,9.90
2019-03-30T15:50:32.734Z,8.38
2019-03-30T15:53:01.207Z,7.83
2019-03-30T15:55:29.640Z,8.55
2019-03-30T15:57:58.205Z,7.72
2019-03-30T16:00:26.664Z,7.40
2019-03-30T16:02:55.254Z,8.85
2019-03-30T16:05:23.772Z,8.73
2019-03-30T16:07:52.331Z,8.90
2019-03-30T16:10:21.055Z,8.13
2019-03-30T16:12:49.534Z,8.68
2019-03-30T16:15:18.031Z,9.28
2019-03-30T16:17:46.484Z,9.20
2019-03-30T16:20:15.659Z,7.87
2019-03-30T16:22:44.890Z,10.08
2019-03-30T16:25:13.261Z,8.40
2019-03-30T16:27:41.878Z,9.00
2019-03-30T16:30:11.297Z,8.03
2019-03-30T16:32:39.819Z,8.28
2019-03-30T16:35:09.529Z,7.35
2019-03-30T16:37:38.048Z,6.90
2019-03-30T16:40:07.332Z,7.42
2019-03-30T16:42:36.355Z,9.90
2019-03-30T16:45:06.410Z,10.53
2019-03-30T16:47:34.869Z,9.48
2019-03-30T16:50:03.668Z,7.33
2019-03-30T16:52:32.154Z,8.60
2019-03-30T16:55:00.657Z,9.28
2019-03-30T16:57:42.629Z,8.23
2019-03-30T16:59:59.414Z,8.50
2019-03-30T17:02:27.843Z,8.20
2019-03-30T17:04:56.551Z,7.30
2019-03-30T17:07:24.978Z,7.70
2019-03-30T17:09:53.415Z,19.12
2019-03-30T17:12:21.891Z,11.60
2019-03-30T17:14:50.612Z,10.98
2019-03-30T17:17:19.037Z,10.45
2019-03-30T17:19:47.484Z,9.68
2019-03-30T17:22:15.917Z,8.70
2019-03-30T17:24:44.378Z,10.23
2019-03-30T17:27:12.871Z,11.08
2019-03-30T17:29:41.294Z,8.43
2019-03-30T17:32:09.839Z,7.37
2019-03-30T17:34:38.363Z,9.33
2019-03-30T17:37:06.924Z,8.88
2019-03-30T17:39:35.445Z,7.08
2019-03-30T17:42:04.008Z,6.53
2019-03-30T17:44:32.713Z,7.95
2019-03-30T17:47:01.165Z,7.83
2019-03-30T17:49:29.590Z,6.95
2019-03-30T17:51:58.023Z,9.50
2019-03-30T17:54:26.475Z,10.45
2019-03-30T17:56:54.940Z,21.75
2019-03-30T17:59:23.948Z,12.05
2019-03-30T18:01:52.594Z,20.40
2019-03-30T18:04:21.062Z,49.85
2019-03-30T18:06:49.639Z,19.00
2019-03-30T18:09:18.082Z,35.98
2019-03-30T18:11:46.596Z,27.45
2019-03-30T18:14:15.056Z,24.57
2019-03-30T18:16:43.575Z,14.63
2019-03-30T18:19:12.088Z,21.52
2019-03-30T18:21:40.615Z,25.20
2019-03-30T18:24:09.038Z,15.83
2019-03-30T18:26:37.555Z,11.03
2019-03-30T18:29:06.089Z,11.57
2019-03-30T18:31:34.933Z,13.75
2019-03-30T18:34:03.512Z,8.53
2019-03-30T18:36:33.706Z,8.75
2019-03-30T18:39:09.836Z,8.03
2019-03-30T18:41:33.923Z,10.90
2019-03-30T18:44:02.890Z,7.30
2019-03-30T18:46:31.440Z,7.35
2019-03-30T18:49:00.038Z,12.70
2019-03-30T18:51:28.705Z,34.98
2019-03-30T18:53:57.466Z,17.37
2019-03-30T18:56:27.958Z,12.30
2019-03-30T18:58:56.063Z,19.82
2019-03-30T19:01:24.521Z,20.27
2019-03-30T19:03:52.944Z,38.02
2019-03-30T19:06:21.491Z,14.50
2019-03-30T19:08:49.970Z,11.25
2019-03-30T19:11:18.502Z,13.50
2019-03-30T19:13:47.078Z,10.25
2019-03-30T19:16:15.802Z,28.12
2019-03-30T19:18:44.296Z,18.60
2019-03-30T19:21:12.867Z,16.62
2019-03-30T19:23:41.379Z,29.37
2019-03-30T19:26:09.859Z,24.05
2019-03-30T19:28:38.295Z,20.23
2019-03-30T19:31:06.798Z,16.25
2019-03-30T19:33:35.282Z,14.68
2019-03-30T19:36:03.839Z,13.32
2019-03-30T19:38:32.311Z,14.07
2019-03-30T19:41:01.600Z,58.80
2019-03-30T19:43:30.029Z,22.77
2019-03-30T19:45:58.454Z,19.70
2019-03-30T19:48:26.919Z,14.73
2019-03-30T19:50:55.405Z,10.93
2019-03-30T19:53:23.842Z,11.78
2019-03-30T19:55:52.464Z,12.85
2019-03-30T19:58:21.022Z,15.45
2019-03-30T20:00:49.705Z,15.30
2019-03-30T20:03:18.154Z,13.15
2019-03-30T20:05:46.645Z,15.80
2019-03-30T20:08:15.097Z,12.98
2019-03-30T20:10:43.539Z,20.10
2019-03-30T20:13:12.083Z,15.38
2019-03-30T20:15:40.681Z,14.28
2019-03-30T20:18:09.257Z,13.38
2019-03-30T20:20:37.717Z,16.45
2019-03-30T20:23:06.254Z,16.37
2019-03-30T20:25:34.713Z,15.68
2019-03-30T20:28:03.182Z,17.42
2019-03-30T20:30:31.774Z,14.83
2019-03-30T20:33:00.282Z,16.55
2019-03-30T20:35:28.732Z,16.50
2019-03-30T20:37:57.266Z,15.55
2019-03-30T20:40:25.983Z,17.35
2019-03-30T20:42:54.404Z,19.40
2019-03-30T20:45:22.851Z,14.65
2019-03-30T20:47:51.310Z,20.23
2019-03-30T20:50:19.813Z,18.55
2019-03-30T20:52:48.297Z,17.07
2019-03-30T20:55:16.787Z,25.20
2019-03-30T20:57:45.253Z,23.02
2019-03-30T21:00:14.696Z,23.42
2019-03-30T21:02:43.188Z,19.82
2019-03-30T21:05:12.006Z,17.30
2019-03-30T21:07:41.920Z,20.27
2019-03-30T21:10:11.625Z,16.57
2019-03-30T21:12:40.094Z,22.42
2019-03-30T21:15:08.685Z,30.70
2019-03-30T21:17:37.123Z,28.35
2019-03-30T21:20:08.857Z,21.70
2019-03-30T21:22:37.638Z,22.32
2019-03-30T21:25:06.616Z,18.45
2019-03-30T21:27:35.091Z,20.55
2019-03-30T21:30:05.621Z,19.17
2019-03-30T21:32:34.065Z,20.50
2019-03-30T21:35:02.698Z,17.70
2019-03-30T21:37:31.120Z,17.25
2019-03-30T21:39:59.556Z,19.82
2019-03-30T21:42:28.031Z,19.60
2019-03-30T21:44:56.447Z,17.52
2019-03-30T21:47:24.897Z,18.82
2019-03-30T21:49:53.373Z,19.90
2019-03-30T21:52:21.795Z,19.45
2019-03-30T21:54:50.254Z,17.27
2019-03-30T21:57:18.758Z,18.98
2019-03-30T21:59:47.281Z,41.63
2019-03-30T22:02:15.743Z,44.77
2019-03-30T22:04:44.262Z,21.62
2019-03-30T22:07:12.931Z,16.65
2019-03-30T22:09:41.497Z,17.57
2019-03-30T22:12:09.923Z,17.60
2019-03-30T22:14:38.537Z,18.35
2019-03-30T22:17:06.968Z,16.60
2019-03-30T22:19:35.528Z,17.40
2019-03-30T22:22:04.010Z,17.98
2019-03-30T22:24:32.513Z,15.60
2019-03-30T22:27:01.014Z,15.38
2019-03-30T22:29:29.444Z,15.85
2019-03-30T22:31:58.198Z,16.05
2019-03-30T22:34:26.688Z,17.60
2019-03-30T22:36:55.178Z,18.27
2019-03-30T22:39:23.700Z,17.57
2019-03-30T22:41:52.270Z,16.17
2019-03-30T22:44:20.852Z,15.65
2019-03-30T22:46:49.287Z,17.77
2019-03-30T22:49:17.833Z,18.42
2019-03-30T22:51:46.306Z,17.07
2019-03-30T22:54:14.772Z,15.68
2019-03-30T22:56:43.277Z,16.52
2019-03-30T22:59:11.716Z,17.25
2019-03-30T23:01:40.317Z,16.45
2019-03-30T23:04:08.865Z,15.65
2019-03-30T23:06:37.426Z,15.45
2019-03-30T23:09:06.606Z,16.27
2019-03-30T23:11:35.044Z,17.77
2019-03-30T23:14:03.644Z,15.68
2019-03-30T23:16:32.173Z,16.12
2019-03-30T23:19:00.630Z,15.83
2019-03-30T23:21:29.060Z,16.20
2019-03-30T23:23:57.480Z,16.85
2019-03-30T23:26:26.015Z,17.10
2019-03-30T23:28:54.449Z,18.40
2019-03-30T23:31:23.074Z,16.00
2019-03-30T23:33:51.530Z,17.15
2019-03-30T23:36:20.071Z,15.80
2019-03-30T23:38:48.499Z,17.87
2019-03-30T23:41:16.932Z,16.37
2019-03-30T23:43:45.386Z,15.43
2019-03-30T23:46:13.955Z,16.00
2019-03-30T23:48:42.387Z,15.50
2019-03-30T23:51:10.851Z,19.00
2019-03-30T23:53:39.266Z,14.50
2019-03-30T23:56:19.781Z,16.25
2019-03-30T23:58:48.447Z,14.78
